Wetterdaten: aktuell Dienstag, 30.08.2016 09:15
Datum Zeit Temperatur Feuchte Luftdruck Regen Wind Richtung Richtung Taupunkt Windchill
30.08.2016 09:15 15,0 C 91 % 1025,8 hPa 0,0 l/m 0,0 km/h (0 Bft) - - 0 13,5 C 15,0 C
30.08.2016 08:15 13,4 C 91 % 1024,9 hPa 0,0 l/m 0,0 km/h (0 Bft) - - 0 12,0 C 13,4 C
30.08.2016 07:15 12,8 C 91 % 1024,9 hPa 0,0 l/m 0,0 km/h (0 Bft) - - 0 11,4 C 12,8 C
30.08.2016 06:15 13,0 C 90 % 1024,9 hPa 0,0 l/m 0,0 km/h (0 Bft) - - 0 11,4 C 13,0 C
30.08.2016 05:15 13,6 C 90 % 1024,9 hPa 0,0 l/m 0,0 km/h (0 Bft) - - 0 12,0 C 13,6 C
30.08.2016 04:15 13,8 C 89 % 1024,8 hPa 0,0 l/m 0,0 km/h (0 Bft) - - 0 12,0 C 13,8 C
30.08.2016 03:15 13,7 C 87 % 1023,8 hPa 0,0 l/m 0,0 km/h (0 Bft) - - 0 11,6 C 13,7 C
30.08.2016 02:15 14,4 C 87 % 1023,8 hPa 0,0 l/m 0,0 km/h (0 Bft) - - 0 12,3 C 14,4 C
30.08.2016 01:15 14,2 C 84 % 1023,8 hPa 0,0 l/m 0,0 km/h (0 Bft) - - 0 11,5 C 14,2 C
30.08.2016 00:15 15,0 C 83 % 1023,7 hPa 0,0 l/m 0,0 km/h (0 Bft) - - 0 12,1 C 15,0 C
29.08.2016 23:15 15,4 C 83 % 1023,7 hPa 0,0 l/m 0,0 km/h (0 Bft) - - 0 12,5 C 15,4 C
29.08.2016 22:15 16,0 C 82 % 1022,6 hPa 0,0 l/m 0,0 km/h (0 Bft) - - 0 12,9 C 16,0 C
29.08.2016 21:15 16,6 C 80 % 1021,5 hPa 0,0 l/m 0,0 km/h (0 Bft) - - 0 13,1 C 16,6 C
29.08.2016 20:15 18,0 C 77 % 1020,4 hPa 0,0 l/m 0,0 km/h (0 Bft) - - 0 13,9 C 18,0 C
29.08.2016 19:15 19,3 C 74 % 1020,3 hPa 0,0 l/m 0,0 km/h (0 Bft) - - 0 14,5 C 19,3 C
29.08.2016 18:15 20,2 C 77 % 1020,2 hPa 0,0 l/m 0,0 km/h (0 Bft) - - 0 16,0 C 20,2 C
29.08.2016 17:15 18,9 C 78 % 1020,3 hPa 0,0 l/m 0,0 km/h (0 Bft) - - 0 15,0 C 18,9 C
29.08.2016 16:15 21,2 C 76 % 1019,1 hPa 0,0 l/m 0,0 km/h (0 Bft) - - 0 16,8 C 21,2 C
29.08.2016 15:15 20,5 C 80 % 1019,2 hPa 0,0 l/m 0,0 km/h (0 Bft) - - 0 16,9 C 20,5 C
29.08.2016 14:15 19,9 C 82 % 1019,2 hPa 0,0 l/m 0,0 km/h (0 Bft) - - 0 16,7 C 19,9 C
29.08.2016 13:15 18,0 C 88 % 1019,4 hPa 1,1 l/m 0,0 km/h (0 Bft) - - 0 16,0 C 18,0 C
29.08.2016 12:15 17,7 C 87 % 1018,4 hPa 3,2 l/m 0,0 km/h (0 Bft) - - 0 15,5 C 17,7 C
29.08.2016 11:15 18,9 C 80 % 1018,3 hPa 0,7 l/m 0,0 km/h (0 Bft) - - 0 15,4 C 18,9 C
29.08.2016 10:15 18,8 C 79 % 1017,3 hPa 0,0 l/m 0,0 km/h (0 Bft) - - 0 15,1 C 18,8 C
29.08.2016 10:00 18,4 C 80 % 1017,3 hPa 0,0 l/m 0,0 km/h (0 Bft) - - 0 14,9 C 18,4 C
_ Min-Zeit 06:51 19:00 11:03 - 10:00 - - 06:51 06:51
Minimum _ 12,6 C 74 % 1017,2 hPa - 0,0 km/h (0 Bft) - - 11,0 C 12,6 C
_ Max-Zeit 16:00 08:48 08:30 12:12 10:00 - - 16:00 16:00
Maximum _ 21,2 C 92 % 1025,9 hPa 1,4 l/m 0,0 km/h
- - (0 Bft)
- - 17,4 C 21,2 C
Durchschnitt _ 16,7 C 83 % 1021,5 hPa #5,0 l/m 0,0 km/h (0 Bft) - - - 13,8 C 16,7 C